sensor_id;sensor_type;location;lat;lon;timestamp;temperature;humidity
20985;DHT22;10651;47.552;7.606;2023-06-22T06:15:10;21.40;99.90
20985;DHT22;10651;47.552;7.606;2023-06-22T06:17:45;21.40;99.90
20985;DHT22;10651;47.552;7.606;2023-06-22T06:20:11;21.30;99.90
20985;DHT22;10651;47.552;7.606;2023-06-22T06:22:37;21.30;99.90
20985;DHT22;10651;47.552;7.606;2023-06-22T06:25:03;21.30;99.90
20985;DHT22;10651;47.552;7.606;2023-06-22T06:27:30;21.30;99.90
20985;DHT22;10651;47.552;7.606;2023-06-22T06:29:56;21.40;99.90
20985;DHT22;10651;47.552;7.606;2023-06-22T06:32:22;21.40;99.90
20985;DHT22;10651;47.552;7.606;2023-06-22T06:34:47;21.40;99.90
20985;DHT22;10651;47.552;7.606;2023-06-22T06:37:13;21.50;99.90
20985;DHT22;10651;47.552;7.606;2023-06-22T06:39:39;21.50;99.90
20985;DHT22;10651;47.552;7.606;2023-06-22T06:42:10;21.50;99.90
20985;DHT22;10651;47.552;7.606;2023-06-22T06:44:36;21.60;99.90
20985;DHT22;10651;47.552;7.606;2023-06-22T06:47:04;21.60;99.90
20985;DHT22;10651;47.552;7.606;2023-06-22T06:49:30;21.40;99.90
20985;DHT22;10651;47.552;7.606;2023-06-22T06:51:55;21.50;99.90
20985;DHT22;10651;47.552;7.606;2023-06-22T06:54:21;21.60;99.90
20985;DHT22;10651;47.552;7.606;2023-06-22T06:56:48;21.70;99.90
20985;DHT22;10651;47.552;7.606;2023-06-22T06:59:14;21.80;99.90
20985;DHT22;10651;47.552;7.606;2023-06-22T07:01:41;21.80;99.90
20985;DHT22;10651;47.552;7.606;2023-06-22T07:04:07;21.90;99.90
20985;DHT22;10651;47.552;7.606;2023-06-22T07:06:33;21.90;99.90
20985;DHT22;10651;47.552;7.606;2023-06-22T07:08:59;22.00;99.90
20985;DHT22;10651;47.552;7.606;2023-06-22T07:11:25;22.10;99.90
20985;DHT22;10651;47.552;7.606;2023-06-22T07:13:51;22.10;99.90
20985;DHT22;10651;47.552;7.606;2023-06-22T07:16:17;22.20;99.90
20985;DHT22;10651;47.552;7.606;2023-06-22T07:18:42;22.40;99.90
20985;DHT22;10651;47.552;7.606;2023-06-22T07:21:08;22.40;99.90
20985;DHT22;10651;47.552;7.606;2023-06-22T07:23:34;22.30;99.90
20985;DHT22;10651;47.552;7.606;2023-06-22T07:26:00;22.30;99.90
20985;DHT22;10651;47.552;7.606;2023-06-22T07:28:28;22.30;99.90
20985;DHT22;10651;47.552;7.606;2023-06-22T07:31:02;22.30;99.90
20985;DHT22;10651;47.552;7.606;2023-06-22T07:33:29;22.40;99.90
20985;DHT22;10651;47.552;7.606;2023-06-22T07:35:55;22.40;99.90
20985;DHT22;10651;47.552;7.606;2023-06-22T07:38:20;22.40;99.90
20985;DHT22;10651;47.552;7.606;2023-06-22T07:40:46;22.50;99.90
20985;DHT22;10651;47.552;7.606;2023-06-22T07:43:12;22.50;99.90
20985;DHT22;10651;47.552;7.606;2023-06-22T07:45:38;22.40;99.90
20985;DHT22;10651;47.552;7.606;2023-06-22T07:48:06;22.50;99.90
20985;DHT22;10651;47.552;7.606;2023-06-22T07:50:32;22.60;99.90
20985;DHT22;10651;47.552;7.606;2023-06-22T07:52:58;22.60;99.90
20985;DHT22;10651;47.552;7.606;2023-06-22T07:55:23;22.60;99.90
20985;DHT22;10651;47.552;7.606;2023-06-22T07:57:49;22.60;99.90
20985;DHT22;10651;47.552;7.606;2023-06-22T08:00:17;22.60;99.90
20985;DHT22;10651;47.552;7.606;2023-06-22T08:02:45;22.70;99.90
20985;DHT22;10651;47.552;7.606;2023-06-22T08:05:12;22.80;99.90
20985;DHT22;10651;47.552;7.606;2023-06-22T08:07:38;22.90;99.90
20985;DHT22;10651;47.552;7.606;2023-06-22T08:10:05;23.00;99.90
20985;DHT22;10651;47.552;7.606;2023-06-22T08:12:31;23.10;99.90
20985;DHT22;10651;47.552;7.606;2023-06-22T08:14:57;23.20;99.90
20985;DHT22;10651;47.552;7.606;2023-06-22T08:17:24;23.30;99.90
20985;DHT22;10651;47.552;7.606;2023-06-22T08:19:50;23.60;99.90
20985;DHT22;10651;47.552;7.606;2023-06-22T08:22:16;23.60;99.90
20985;DHT22;10651;47.552;7.606;2023-06-22T08:24:45;23.60;99.90
20985;DHT22;10651;47.552;7.606;2023-06-22T08:27:11;23.70;99.90
20985;DHT22;10651;47.552;7.606;2023-06-22T08:29:39;23.80;99.90
20985;DHT22;10651;47.552;7.606;2023-06-22T08:32:05;23.80;99.90
20985;DHT22;10651;47.552;7.606;2023-06-22T08:34:32;23.80;99.90
20985;DHT22;10651;47.552;7.606;2023-06-22T08:36:57;23.80;99.90
20985;DHT22;10651;47.552;7.606;2023-06-22T08:39:23;23.80;99.90
20985;DHT22;10651;47.552;7.606;2023-06-22T08:41:49;23.80;99.90
20985;DHT22;10651;47.552;7.606;2023-06-22T08:44:18;23.80;99.90
20985;DHT22;10651;47.552;7.606;2023-06-22T08:46:44;23.90;99.90
20985;DHT22;10651;47.552;7.606;2023-06-22T08:49:09;23.90;99.90
20985;DHT22;10651;47.552;7.606;2023-06-22T08:51:36;24.00;99.90
20985;DHT22;10651;47.552;7.606;2023-06-22T08:54:02;24.00;99.90
20985;DHT22;10651;47.552;7.606;2023-06-22T08:56:27;23.90;99.90
20985;DHT22;10651;47.552;7.606;2023-06-22T08:58:53;24.00;99.90
20985;DHT22;10651;47.552;7.606;2023-06-22T09:01:19;24.10;99.90
20985;DHT22;10651;47.552;7.606;2023-06-22T09:03:45;24.20;99.90
20985;DHT22;10651;47.552;7.606;2023-06-22T09:06:20;24.30;99.90
20985;DHT22;10651;47.552;7.606;2023-06-22T09:08:46;24.30;99.90
20985;DHT22;10651;47.552;7.606;2023-06-22T09:11:14;24.30;99.90
20985;DHT22;10651;47.552;7.606;2023-06-22T09:13:40;24.30;99.90
20985;DHT22;10651;47.552;7.606;2023-06-22T09:16:05;24.30;99.90
20985;DHT22;10651;47.552;7.606;2023-06-22T09:18:33;24.20;99.90
20985;DHT22;10651;47.552;7.606;2023-06-22T09:20:59;24.20;99.90
20985;DHT22;10651;47.552;7.606;2023-06-22T09:23:25;24.20;99.90
20985;DHT22;10651;47.552;7.606;2023-06-22T09:25:50;24.20;99.90
20985;DHT22;10651;47.552;7.606;2023-06-22T09:28:16;24.20;99.90
20985;DHT22;10651;47.552;7.606;2023-06-22T09:30:43;24.30;99.90
20985;DHT22;10651;47.552;7.606;2023-06-22T09:33:09;24.30;99.90
20985;DHT22;10651;47.552;7.606;2023-06-22T09:35:35;24.40;99.90
20985;DHT22;10651;47.552;7.606;2023-06-22T09:38:01;24.50;99.90
20985;DHT22;10651;47.552;7.606;2023-06-22T09:40:27;24.50;99.90
20985;DHT22;10651;47.552;7.606;2023-06-22T09:42:52;24.60;99.90
20985;DHT22;10651;47.552;7.606;2023-06-22T09:45:18;24.70;99.90
20985;DHT22;10651;47.552;7.606;2023-06-22T09:47:44;24.70;99.90
20985;DHT22;10651;47.552;7.606;2023-06-22T09:50:10;24.80;99.90
20985;DHT22;10651;47.552;7.606;2023-06-22T09:52:35;24.80;99.90
20985;DHT22;10651;47.552;7.606;2023-06-22T09:55:01;24.70;99.90
20985;DHT22;10651;47.552;7.606;2023-06-22T09:57:29;24.80;99.90
20985;DHT22;10651;47.552;7.606;2023-06-22T09:59:55;24.80;99.90
20985;DHT22;10651;47.552;7.606;2023-06-22T10:02:21;24.80;99.90
20985;DHT22;10651;47.552;7.606;2023-06-22T10:04:47;24.80;99.90
20985;DHT22;10651;47.552;7.606;2023-06-22T10:07:13;24.80;99.90
20985;DHT22;10651;47.552;7.606;2023-06-22T10:09:39;24.90;99.90
20985;DHT22;10651;47.552;7.606;2023-06-22T10:12:05;24.90;99.90
20985;DHT22;10651;47.552;7.606;2023-06-22T10:14:31;24.90;99.90
20985;DHT22;10651;47.552;7.606;2023-06-22T10:16:56;24.90;99.90
20985;DHT22;10651;47.552;7.606;2023-06-22T10:19:22;24.90;99.90
20985;DHT22;10651;47.552;7.606;2023-06-22T10:21:48;24.80;99.90
20985;DHT22;10651;47.552;7.606;2023-06-22T10:24:13;24.90;99.90
20985;DHT22;10651;47.552;7.606;2023-06-22T10:26:39;24.90;99.90
20985;DHT22;10651;47.552;7.606;2023-06-22T10:29:05;24.90;99.90
20985;DHT22;10651;47.552;7.606;2023-06-22T10:31:30;24.90;99.90
20985;DHT22;10651;47.552;7.606;2023-06-22T10:33:56;24.80;99.90
20985;DHT22;10651;47.552;7.606;2023-06-22T10:36:22;24.90;99.90
20985;DHT22;10651;47.552;7.606;2023-06-22T10:38:48;24.90;99.90
20985;DHT22;10651;47.552;7.606;2023-06-22T10:41:14;24.90;99.90
20985;DHT22;10651;47.552;7.606;2023-06-22T10:43:40;24.90;99.90
20985;DHT22;10651;47.552;7.606;2023-06-22T10:46:07;24.90;99.90
20985;DHT22;10651;47.552;7.606;2023-06-22T10:48:32;25.00;99.90
20985;DHT22;10651;47.552;7.606;2023-06-22T10:50:58;25.00;99.90
20985;DHT22;10651;47.552;7.606;2023-06-22T10:53:24;25.00;99.90
20985;DHT22;10651;47.552;7.606;2023-06-22T10:55:49;25.00;99.90
20985;DHT22;10651;47.552;7.606;2023-06-22T10:58:17;25.10;99.90
20985;DHT22;10651;47.552;7.606;2023-06-22T11:00:43;25.10;99.90
20985;DHT22;10651;47.552;7.606;2023-06-22T11:03:09;25.10;99.90
20985;DHT22;10651;47.552;7.606;2023-06-22T11:05:34;25.10;99.90
20985;DHT22;10651;47.552;7.606;2023-06-22T11:08:00;25.10;99.90
20985;DHT22;10651;47.552;7.606;2023-06-22T11:10:29;25.10;99.90
20985;DHT22;10651;47.552;7.606;2023-06-22T11:12:54;25.10;99.90
20985;DHT22;10651;47.552;7.606;2023-06-22T11:15:21;25.10;99.90
20985;DHT22;10651;47.552;7.606;2023-06-22T11:17:47;25.10;99.90
20985;DHT22;10651;47.552;7.606;2023-06-22T11:20:12;25.10;99.90
20985;DHT22;10651;47.552;7.606;2023-06-22T11:22:41;25.10;99.90
20985;DHT22;10651;47.552;7.606;2023-06-22T11:25:07;25.10;99.90
20985;DHT22;10651;47.552;7.606;2023-06-22T11:27:34;25.10;99.90
20985;DHT22;10651;47.552;7.606;2023-06-22T11:29:59;25.10;99.90
20985;DHT22;10651;47.552;7.606;2023-06-22T11:32:25;25.20;99.90
20985;DHT22;10651;47.552;7.606;2023-06-22T11:34:51;25.20;99.90
20985;DHT22;10651;47.552;7.606;2023-06-22T11:37:17;25.30;99.90
20985;DHT22;10651;47.552;7.606;2023-06-22T11:39:42;25.30;99.90
20985;DHT22;10651;47.552;7.606;2023-06-22T11:42:09;25.50;99.90
20985;DHT22;10651;47.552;7.606;2023-06-22T11:44:35;25.50;99.90
20985;DHT22;10651;47.552;7.606;2023-06-22T11:47:01;25.60;99.90
20985;DHT22;10651;47.552;7.606;2023-06-22T11:49:32;25.70;99.90
20985;DHT22;10651;47.552;7.606;2023-06-22T11:51:58;25.70;99.90
20985;DHT22;10651;47.552;7.606;2023-06-22T11:54:23;25.70;99.90
20985;DHT22;10651;47.552;7.606;2023-06-22T11:56:49;25.70;99.90
20985;DHT22;10651;47.552;7.606;2023-06-22T11:59:15;25.70;99.90
20985;DHT22;10651;47.552;7.606;2023-06-22T12:01:40;25.70;99.90
20985;DHT22;10651;47.552;7.606;2023-06-22T12:04:06;25.70;99.90
20985;DHT22;10651;47.552;7.606;2023-06-22T12:06:32;25.70;99.90
20985;DHT22;10651;47.552;7.606;2023-06-22T12:08:58;25.80;99.90
20985;DHT22;10651;47.552;7.606;2023-06-22T12:11:24;25.90;99.90
20985;DHT22;10651;47.552;7.606;2023-06-22T12:13:50;25.90;99.90
20985;DHT22;10651;47.552;7.606;2023-06-22T12:16:15;25.80;99.90
20985;DHT22;10651;47.552;7.606;2023-06-22T12:18:41;25.80;99.90
20985;DHT22;10651;47.552;7.606;2023-06-22T12:21:07;25.70;99.90
20985;DHT22;10651;47.552;7.606;2023-06-22T12:23:33;25.70;99.90
20985;DHT22;10651;47.552;7.606;2023-06-22T12:25:58;25.80;99.90
20985;DHT22;10651;47.552;7.606;2023-06-22T12:28:25;25.80;99.90
20985;DHT22;10651;47.552;7.606;2023-06-22T12:30:51;26.00;99.90
20985;DHT22;10651;47.552;7.606;2023-06-22T12:33:16;26.20;99.90
20985;DHT22;10651;47.552;7.606;2023-06-22T12:35:43;26.40;99.90
20985;DHT22;10651;47.552;7.606;2023-06-22T12:38:10;26.60;99.90
20985;DHT22;10651;47.552;7.606;2023-06-22T12:40:36;26.60;99.90
20985;DHT22;10651;47.552;7.606;2023-06-22T12:43:02;26.60;99.90
20985;DHT22;10651;47.552;7.606;2023-06-22T12:45:28;26.50;99.90
20985;DHT22;10651;47.552;7.606;2023-06-22T12:47:57;26.50;99.90
20985;DHT22;10651;47.552;7.606;2023-06-22T12:50:23;26.40;99.90
20985;DHT22;10651;47.552;7.606;2023-06-22T12:52:48;26.40;99.90
20985;DHT22;10651;47.552;7.606;2023-06-22T12:55:14;26.40;99.90
20985;DHT22;10651;47.552;7.606;2023-06-22T12:57:40;26.50;99.90
20985;DHT22;10651;47.552;7.606;2023-06-22T13:00:06;26.50;99.90
20985;DHT22;10651;47.552;7.606;2023-06-22T13:02:33;26.40;99.90
20985;DHT22;10651;47.552;7.606;2023-06-22T13:04:59;26.30;99.90
20985;DHT22;10651;47.552;7.606;2023-06-22T13:07:25;26.20;99.90
20985;DHT22;10651;47.552;7.606;2023-06-22T13:09:51;26.20;99.90
20985;DHT22;10651;47.552;7.606;2023-06-22T13:12:17;26.20;99.90
20985;DHT22;10651;47.552;7.606;2023-06-22T13:14:43;26.20;99.90
20985;DHT22;10651;47.552;7.606;2023-06-22T13:17:09;26.00;99.90
20985;DHT22;10651;47.552;7.606;2023-06-22T13:19:35;25.90;99.90
20985;DHT22;10651;47.552;7.606;2023-06-22T13:22:00;25.80;99.90
20985;DHT22;10651;47.552;7.606;2023-06-22T13:24:27;25.80;99.90
20985;DHT22;10651;47.552;7.606;2023-06-22T13:26:53;25.70;99.90
20985;DHT22;10651;47.552;7.606;2023-06-22T13:29:19;25.60;99.90
20985;DHT22;10651;47.552;7.606;2023-06-22T13:31:44;25.50;99.90
20985;DHT22;10651;47.552;7.606;2023-06-22T13:34:10;25.50;99.90
20985;DHT22;10651;47.552;7.606;2023-06-22T13:36:36;25.40;99.90
20985;DHT22;10651;47.552;7.606;2023-06-22T13:39:02;25.40;99.90
20985;DHT22;10651;47.552;7.606;2023-06-22T13:41:27;25.40;99.90
20985;DHT22;10651;47.552;7.606;2023-06-22T13:43:53;25.40;99.90
20985;DHT22;10651;47.552;7.606;2023-06-22T13:46:19;25.40;99.90
20985;DHT22;10651;47.552;7.606;2023-06-22T13:48:45;25.50;99.90
20985;DHT22;10651;47.552;7.606;2023-06-22T13:51:10;25.50;99.90
20985;DHT22;10651;47.552;7.606;2023-06-22T13:53:36;25.50;99.90
20985;DHT22;10651;47.552;7.606;2023-06-22T13:56:02;25.50;99.90
20985;DHT22;10651;47.552;7.606;2023-06-22T13:58:28;25.50;99.90
20985;DHT22;10651;47.552;7.606;2023-06-22T14:00:53;25.50;99.90
20985;DHT22;10651;47.552;7.606;2023-06-22T14:03:19;25.40;99.90
20985;DHT22;10651;47.552;7.606;2023-06-22T14:05:45;25.50;99.90
20985;DHT22;10651;47.552;7.606;2023-06-22T14:08:12;25.50;99.90
20985;DHT22;10651;47.552;7.606;2023-06-22T14:10:37;25.50;99.90
20985;DHT22;10651;47.552;7.606;2023-06-22T14:13:03;25.50;99.90
20985;DHT22;10651;47.552;7.606;2023-06-22T14:15:31;25.50;99.90
20985;DHT22;10651;47.552;7.606;2023-06-22T14:17:57;25.50;99.90
20985;DHT22;10651;47.552;7.606;2023-06-22T14:20:25;25.40;99.90
20985;DHT22;10651;47.552;7.606;2023-06-22T14:22:51;25.40;99.90
20985;DHT22;10651;47.552;7.606;2023-06-22T14:25:16;25.40;99.90
20985;DHT22;10651;47.552;7.606;2023-06-22T14:27:45;25.40;99.90
20985;DHT22;10651;47.552;7.606;2023-06-22T14:30:11;25.50;99.90
20985;DHT22;10651;47.552;7.606;2023-06-22T14:32:37;25.50;99.90
20985;DHT22;10651;47.552;7.606;2023-06-22T14:35:02;25.50;99.90
20985;DHT22;10651;47.552;7.606;2023-06-22T14:37:28;25.60;99.90
20985;DHT22;10651;47.552;7.606;2023-06-22T14:39:57;25.70;99.90
20985;DHT22;10651;47.552;7.606;2023-06-22T14:42:23;25.80;99.90
20985;DHT22;10651;47.552;7.606;2023-06-22T14:44:48;25.80;99.90
20985;DHT22;10651;47.552;7.606;2023-06-22T14:47:14;25.80;99.90
20985;DHT22;10651;47.552;7.606;2023-06-22T14:49:40;25.80;99.90
20985;DHT22;10651;47.552;7.606;2023-06-22T14:52:06;25.70;99.90
20985;DHT22;10651;47.552;7.606;2023-06-22T14:54:32;25.60;99.90
20985;DHT22;10651;47.552;7.606;2023-06-22T14:56:58;25.70;99.90
20985;DHT22;10651;47.552;7.606;2023-06-22T14:59:26;25.70;99.90
20985;DHT22;10651;47.552;7.606;2023-06-22T15:01:51;25.60;99.90
20985;DHT22;10651;47.552;7.606;2023-06-22T15:04:17;25.60;99.90
20985;DHT22;10651;47.552;7.606;2023-06-22T15:06:45;25.50;99.90
20985;DHT22;10651;47.552;7.606;2023-06-22T15:09:11;25.50;99.90
20985;DHT22;10651;47.552;7.606;2023-06-22T15:11:39;25.50;99.90
20985;DHT22;10651;47.552;7.606;2023-06-22T15:14:05;25.40;99.90
20985;DHT22;10651;47.552;7.606;2023-06-22T15:16:30;25.40;99.90
20985;DHT22;10651;47.552;7.606;2023-06-22T15:18:59;25.40;99.90
20985;DHT22;10651;47.552;7.606;2023-06-22T15:21:25;25.30;99.90
20985;DHT22;10651;47.552;7.606;2023-06-22T15:23:51;25.30;99.90
20985;DHT22;10651;47.552;7.606;2023-06-22T15:26:16;25.20;99.90
20985;DHT22;10651;47.552;7.606;2023-06-22T15:28:42;25.20;99.90
20985;DHT22;10651;47.552;7.606;2023-06-22T15:31:08;25.10;99.90
20985;DHT22;10651;47.552;7.606;2023-06-22T15:33:34;25.10;99.90
20985;DHT22;10651;47.552;7.606;2023-06-22T15:36:03;25.10;99.90
20985;DHT22;10651;47.552;7.606;2023-06-22T15:38:31;25.00;99.90
20985;DHT22;10651;47.552;7.606;2023-06-22T15:40:57;25.00;99.90
20985;DHT22;10651;47.552;7.606;2023-06-22T15:43:26;24.90;99.90
20985;DHT22;10651;47.552;7.606;2023-06-22T15:45:52;24.80;99.90
20985;DHT22;10651;47.552;7.606;2023-06-22T15:48:20;24.80;99.90
20985;DHT22;10651;47.552;7.606;2023-06-22T15:50:45;24.80;99.90
20985;DHT22;10651;47.552;7.606;2023-06-22T15:53:11;24.80;99.90
20985;DHT22;10651;47.552;7.606;2023-06-22T15:55:37;24.80;99.90
20985;DHT22;10651;47.552;7.606;2023-06-22T15:58:02;24.70;99.90
20985;DHT22;10651;47.552;7.606;2023-06-22T16:00:28;24.70;99.90
20985;DHT22;10651;47.552;7.606;2023-06-22T16:02:54;24.80;99.90
20985;DHT22;10651;47.552;7.606;2023-06-22T16:05:20;24.80;99.90
20985;DHT22;10651;47.552;7.606;2023-06-22T16:07:45;24.80;99.90
20985;DHT22;10651;47.552;7.606;2023-06-22T16:10:11;24.90;99.90
20985;DHT22;10651;47.552;7.606;2023-06-22T16:12:42;25.00;99.90
20985;DHT22;10651;47.552;7.606;2023-06-22T16:15:08;24.90;99.90
20985;DHT22;10651;47.552;7.606;2023-06-22T16:17:34;24.90;99.90
20985;DHT22;10651;47.552;7.606;2023-06-22T16:20:04;25.00;99.90
20985;DHT22;10651;47.552;7.606;2023-06-22T16:22:31;24.90;99.90
20985;DHT22;10651;47.552;7.606;2023-06-22T16:24:57;24.90;99.90
20985;DHT22;10651;47.552;7.606;2023-06-22T16:27:23;24.80;99.90
20985;DHT22;10651;47.552;7.606;2023-06-22T16:29:50;24.80;99.90
20985;DHT22;10651;47.552;7.606;2023-06-22T16:32:16;24.70;99.90
20985;DHT22;10651;47.552;7.606;2023-06-22T16:34:43;24.60;99.90
20985;DHT22;10651;47.552;7.606;2023-06-22T16:37:11;24.60;99.90
20985;DHT22;10651;47.552;7.606;2023-06-22T16:39:38;24.50;99.90
20985;DHT22;10651;47.552;7.606;2023-06-22T16:42:03;24.50;99.90
20985;DHT22;10651;47.552;7.606;2023-06-22T16:44:29;24.50;99.90
20985;DHT22;10651;47.552;7.606;2023-06-22T16:46:55;24.50;99.90
20985;DHT22;10651;47.552;7.606;2023-06-22T16:49:21;24.40;99.90
20985;DHT22;10651;47.552;7.606;2023-06-22T16:51:46;24.40;99.90
20985;DHT22;10651;47.552;7.606;2023-06-22T16:54:12;24.40;99.90
20985;DHT22;10651;47.552;7.606;2023-06-22T16:56:39;24.40;99.90
20985;DHT22;10651;47.552;7.606;2023-06-22T16:59:05;24.30;99.90
20985;DHT22;10651;47.552;7.606;2023-06-22T17:01:33;24.30;99.90
20985;DHT22;10651;47.552;7.606;2023-06-22T17:04:09;24.40;99.90
20985;DHT22;10651;47.552;7.606;2023-06-22T17:06:46;24.40;99.90
20985;DHT22;10651;47.552;7.606;2023-06-22T17:09:14;24.40;99.90
20985;DHT22;10651;47.552;7.606;2023-06-22T17:11:41;24.50;99.90
20985;DHT22;10651;47.552;7.606;2023-06-22T17:14:07;24.50;99.90
20985;DHT22;10651;47.552;7.606;2023-06-22T17:16:33;24.40;99.90
20985;DHT22;10651;47.552;7.606;2023-06-22T17:19:03;24.30;99.90
20985;DHT22;10651;47.552;7.606;2023-06-22T17:21:31;24.20;99.90
20985;DHT22;10651;47.552;7.606;2023-06-22T17:24:00;23.70;99.90
20985;DHT22;10651;47.552;7.606;2023-06-22T17:26:26;22.10;99.90
20985;DHT22;10651;47.552;7.606;2023-06-22T17:28:53;20.80;99.90
20985;DHT22;10651;47.552;7.606;2023-06-22T17:31:36;19.90;99.90
20985;DHT22;10651;47.552;7.606;2023-06-22T17:34:13;19.60;99.90
20985;DHT22;10651;47.552;7.606;2023-06-22T17:36:48;19.70;99.90
20985;DHT22;10651;47.552;7.606;2023-06-22T17:39:15;19.80;99.90
20985;DHT22;10651;47.552;7.606;2023-06-22T17:41:45;19.90;99.90
20985;DHT22;10651;47.552;7.606;2023-06-22T17:44:12;20.00;99.90
20985;DHT22;10651;47.552;7.606;2023-06-22T17:46:41;20.00;99.90
20985;DHT22;10651;47.552;7.606;2023-06-22T17:49:12;20.10;99.90
20985;DHT22;10651;47.552;7.606;2023-06-22T17:51:43;20.20;99.90
20985;DHT22;10651;47.552;7.606;2023-06-22T17:54:09;20.20;99.90
20985;DHT22;10651;47.552;7.606;2023-06-22T17:56:35;20.20;99.90
20985;DHT22;10651;47.552;7.606;2023-06-22T17:59:02;20.20;99.90
20985;DHT22;10651;47.552;7.606;2023-06-22T18:01:36;20.20;99.90
20985;DHT22;10651;47.552;7.606;2023-06-22T18:04:18;20.10;99.90
20985;DHT22;10651;47.552;7.606;2023-06-22T18:06:46;20.00;99.90
20985;DHT22;10651;47.552;7.606;2023-06-22T18:09:16;20.10;99.90
20985;DHT22;10651;47.552;7.606;2023-06-22T18:14:25;20.00;99.90
20985;DHT22;10651;47.552;7.606;2023-06-22T18:16:54;19.90;99.90
20985;DHT22;10651;47.552;7.606;2023-06-22T18:19:26;19.80;99.90
20985;DHT22;10651;47.552;7.606;2023-06-22T18:21:53;19.80;99.90
20985;DHT22;10651;47.552;7.606;2023-06-22T18:24:33;19.80;99.90
20985;DHT22;10651;47.552;7.606;2023-06-22T18:27:10;19.70;99.90
20985;DHT22;10651;47.552;7.606;2023-06-22T18:29:42;19.80;99.90
20985;DHT22;10651;47.552;7.606;2023-06-22T18:32:17;20.10;99.90
20985;DHT22;10651;47.552;7.606;2023-06-22T18:37:47;20.00;99.90
20985;DHT22;10651;47.552;7.606;2023-06-22T18:40:43;19.90;99.90
20985;DHT22;10651;47.552;7.606;2023-06-22T18:43:43;19.90;99.90
20985;DHT22;10651;47.552;7.606;2023-06-22T18:46:34;19.80;99.90
20985;DHT22;10651;47.552;7.606;2023-06-22T18:54:32;19.80;99.90
20985;DHT22;10651;47.552;7.606;2023-06-22T18:56:59;19.80;99.90
20985;DHT22;10651;47.552;7.606;2023-06-22T18:59:46;19.90;99.90
20985;DHT22;10651;47.552;7.606;2023-06-22T19:05:17;20.00;99.90
20985;DHT22;10651;47.552;7.606;2023-06-22T19:12:53;19.80;99.90
20985;DHT22;10651;47.552;7.606;2023-06-22T19:15:35;19.80;99.90
20985;DHT22;10651;47.552;7.606;2023-06-22T19:20:51;19.90;99.90
20985;DHT22;10651;47.552;7.606;2023-06-22T19:23:32;20.00;99.90
20985;DHT22;10651;47.552;7.606;2023-06-22T19:26:12;19.90;99.90
20985;DHT22;10651;47.552;7.606;2023-06-22T19:28:54;19.90;99.90
20985;DHT22;10651;47.552;7.606;2023-06-22T19:31:24;19.90;99.90
20985;DHT22;10651;47.552;7.606;2023-06-22T19:34:08;20.00;99.90
20985;DHT22;10651;47.552;7.606;2023-06-22T19:36:35;19.90;99.90
20985;DHT22;10651;47.552;7.606;2023-06-22T19:39:03;19.90;99.90
20985;DHT22;10651;47.552;7.606;2023-06-22T19:41:29;19.80;99.90
20985;DHT22;10651;47.552;7.606;2023-06-22T19:43:58;19.80;99.90
20985;DHT22;10651;47.552;7.606;2023-06-22T19:46:28;19.70;99.90
20985;DHT22;10651;47.552;7.606;2023-06-22T19:48:55;19.70;99.90
20985;DHT22;10651;47.552;7.606;2023-06-22T19:51:21;19.80;99.90
20985;DHT22;10651;47.552;7.606;2023-06-22T19:53:48;19.70;99.90
20985;DHT22;10651;47.552;7.606;2023-06-22T19:56:20;19.70;99.90
20985;DHT22;10651;47.552;7.606;2023-06-22T19:58:46;19.80;99.90
20985;DHT22;10651;47.552;7.606;2023-06-22T20:01:12;19.70;99.90
20985;DHT22;10651;47.552;7.606;2023-06-22T20:03:38;19.70;99.90
20985;DHT22;10651;47.552;7.606;2023-06-22T20:06:14;19.70;99.90
20985;DHT22;10651;47.552;7.606;2023-06-22T20:08:48;19.70;99.90
20985;DHT22;10651;47.552;7.606;2023-06-22T20:11:14;19.70;99.90
20985;DHT22;10651;47.552;7.606;2023-06-22T20:13:47;19.70;99.90
20985;DHT22;10651;47.552;7.606;2023-06-22T20:16:13;19.70;99.90
20985;DHT22;10651;47.552;7.606;2023-06-22T20:18:44;19.80;99.90
20985;DHT22;10651;47.552;7.606;2023-06-22T20:21:14;19.70;99.90
20985;DHT22;10651;47.552;7.606;2023-06-22T20:23:43;19.70;99.90
20985;DHT22;10651;47.552;7.606;2023-06-22T20:26:09;19.80;99.90
20985;DHT22;10651;47.552;7.606;2023-06-22T20:28:35;19.90;99.90
20985;DHT22;10651;47.552;7.606;2023-06-22T20:31:08;20.00;99.90
20985;DHT22;10651;47.552;7.606;2023-06-22T20:33:35;20.00;99.90
20985;DHT22;10651;47.552;7.606;2023-06-22T20:36:04;20.00;99.90
20985;DHT22;10651;47.552;7.606;2023-06-22T20:38:34;20.00;99.90
20985;DHT22;10651;47.552;7.606;2023-06-22T20:41:03;20.00;99.90
20985;DHT22;10651;47.552;7.606;2023-06-22T20:43:32;19.90;99.90
20985;DHT22;10651;47.552;7.606;2023-06-22T20:46:00;20.00;99.90
20985;DHT22;10651;47.552;7.606;2023-06-22T20:48:25;19.90;99.90
20985;DHT22;10651;47.552;7.606;2023-06-22T20:50:51;20.00;99.90
20985;DHT22;10651;47.552;7.606;2023-06-22T20:53:17;20.00;99.90
20985;DHT22;10651;47.552;7.606;2023-06-22T20:55:45;20.10;99.90
20985;DHT22;10651;47.552;7.606;2023-06-22T20:58:11;20.20;99.90
20985;DHT22;10651;47.552;7.606;2023-06-22T21:00:37;20.20;99.90
20985;DHT22;10651;47.552;7.606;2023-06-22T21:03:08;20.10;99.90
20985;DHT22;10651;47.552;7.606;2023-06-22T21:05:35;20.00;99.90
20985;DHT22;10651;47.552;7.606;2023-06-22T21:08:01;20.00;99.90
20985;DHT22;10651;47.552;7.606;2023-06-22T21:10:27;20.00;99.90
20985;DHT22;10651;47.552;7.606;2023-06-22T21:12:52;20.10;99.90
20985;DHT22;10651;47.552;7.606;2023-06-22T21:15:21;20.10;99.90
20985;DHT22;10651;47.552;7.606;2023-06-22T21:17:47;20.10;99.90
20985;DHT22;10651;47.552;7.606;2023-06-22T21:20:17;20.10;99.90
20985;DHT22;10651;47.552;7.606;2023-06-22T21:22:43;20.00;99.90
20985;DHT22;10651;47.552;7.606;2023-06-22T21:25:13;20.00;99.90
20985;DHT22;10651;47.552;7.606;2023-06-22T21:27:41;20.00;99.90
